Airports and Charts


LFSB - Basel
METEO Reports
METAR
LFSB
022200Z AUTO 22002KT CAVOK 06/04 Q0999 NOSIG
LFSB
161430Z AUTO 01007KT 340V040 CAVOK 15/03 Q1017 NOSIG
TAF
TAF LFSB
161100Z 1612/1712 01006KT CAVOK

Charts
Charts - LFSB
Basle
  FilenameReleased
E Package All IFR charts provided by SIA21.05.2017
E VFR All VFR charts provided by SIA01.07.2022

Sceneries
Sceneries - LFSB
Basle
  FilenameReleased
E Freeware Euroairport Basel Mulhouse Freiburg FS2004 and FSX and P3D20.09.2011
E Freeware Euroairport Basel Mulhouse Freiburg XP1121.08.2018
E Payware Euroairport Basel Mulhouse Freiburg MSFS202029.10.2020
E Payware Euroairport Basel Mulhouse Freiburg P3DV4.4+ & MSFS202010.01.2020
E Payware France VFR - Bâle-Mulhouse FSX24.04.2020
E Payware JustSim Euroairport Basel Mulhouse Freiburg P3Dv4.4+24.04.2020
E Payware JustSim Euroairport Basel Mulhouse Freiburg XP1124.04.2020

Stations
KennzeichenNameFrequenz
LSAS_CTR Swiss Radar 135.015 MHz
LSAS_I_CTR Swiss Information 124.700 MHz
LSAZ_CTR Swiss Radar 133.050 MHz
LSAZ_E_CTR Swiss Radar 133.905 MHz
LSAZ_N_CTR Swiss Radar 136.155 MHz
LSAZ_S_CTR Swiss Radar 128.050 MHz
LSAZ_W_CTR Swiss Radar 135.680 MHz
LFSB_APP Basel Approach 119.355 MHz
LFSB_C_APP Basel Control 135.850 MHz
LFSB_TWR Basel Tower 118.300 MHz
LFSB_GND Basel Ground 121.605 MHz
LFSB_DEL Basel Delivery 121.955 MHz
LFSB_ATIS Basel ATIS 127.880 MHz


 

online atc

bookings overview

events RSS

news RSS

  • Christmas Break 2022

    12/23/22 17:20:40 z

    Dear members and guests, After an eventful year and a busy season of events, we ...

  • Summer Break 2022

    07/03/22 20:31:57 z

    After a busy first half of the year, vACC Switzerland is proud of its successful ...

  • Cross The Land 2022 Westbound Voting

    12/13/21 15:02:52 z

    The CTL team are pleased to announce that voting is open for our Westbound event ...